createdAt,value
2023-04-15T00:02:23.277Z,98932.41
2023-04-15T00:04:53.677Z,98924.34
2023-04-15T00:07:23.620Z,98927.81
2023-04-15T00:09:51.863Z,98922.00
2023-04-15T00:12:19.245Z,98923.03
2023-04-15T00:14:49.092Z,98914.22
2023-04-15T00:17:19.580Z,98916.09
2023-04-15T00:19:49.527Z,98923.69
2023-04-15T00:22:16.410Z,98924.47
2023-04-15T00:24:43.467Z,98917.22
2023-04-15T00:27:16.151Z,98915.66
2023-04-15T00:29:45.916Z,98915.16
2023-04-15T00:32:18.808Z,98917.03
2023-04-15T00:34:45.961Z,98915.16
2023-04-15T00:37:13.001Z,98916.72
2023-04-15T00:39:42.474Z,98921.63
2023-04-15T00:42:18.214Z,98916.88
2023-04-15T00:44:48.678Z,98921.91
2023-04-15T00:47:17.639Z,98923.81
2023-04-15T00:49:48.516Z,98924.31
2023-04-15T00:52:19.623Z,98919.56
2023-04-15T00:54:52.452Z,98924.13
2023-04-15T00:57:23.418Z,98928.69
2023-04-15T00:59:53.087Z,98930.88
2023-04-15T01:02:26.381Z,98924.75
2023-04-15T01:04:55.090Z,98923.16
2023-04-15T01:07:25.959Z,98923.94
2023-04-15T01:09:57.011Z,98927.75
2023-04-15T01:12:26.706Z,98928.81
2023-04-15T01:14:58.062Z,98933.72
2023-04-15T01:17:26.188Z,98925.66
2023-04-15T01:20:00.363Z,98929.13
2023-04-15T01:22:32.384Z,98928.34
2023-04-15T01:25:09.345Z,98929.47
2023-04-15T01:27:46.031Z,98932.13
2023-04-15T01:30:13.469Z,98926.28
2023-04-15T01:32:43.759Z,98927.37
2023-04-15T01:35:15.156Z,98933.53
2023-04-15T01:37:46.017Z,98934.31
2023-04-15T01:40:13.785Z,98938.12
2023-04-15T01:42:45.353Z,98939.22
2023-04-15T01:45:16.818Z,98934.94
2023-04-15T01:47:44.416Z,98937.62
2023-04-15T01:50:11.952Z,98936.03
2023-04-15T01:52:42.861Z,98934.47
2023-04-15T01:55:12.060Z,98935.56
2023-04-15T01:57:45.594Z,98935.06
2023-04-15T02:00:18.977Z,98939.31
2023-04-15T02:02:46.650Z,98935.06
2023-04-15T02:05:17.477Z,98943.13
2023-04-15T02:07:45.478Z,98946.91
2023-04-15T02:10:13.447Z,98942.31
2023-04-15T02:12:43.539Z,98937.56
2023-04-15T02:15:14.506Z,98934.59
2023-04-15T02:17:51.299Z,98942.94
2023-04-15T02:20:23.663Z,98938.38
2023-04-15T02:22:53.969Z,98945.94
2023-04-15T02:25:28.363Z,98947.50
2023-04-15T02:27:58.436Z,98942.16
2023-04-15T02:30:29.192Z,98943.53
2023-04-15T02:32:59.895Z,98942.75
2023-04-15T02:35:30.454Z,98940.56
2023-04-15T02:37:57.968Z,98938.19
2023-04-15T02:40:28.538Z,98932.81
2023-04-15T02:42:58.493Z,98935.81
2023-04-15T02:45:26.107Z,98941.19
2023-04-15T02:47:53.462Z,98947.66
2023-04-15T02:50:21.168Z,98948.75
2023-04-15T02:52:52.112Z,98941.00
2023-04-15T02:55:22.781Z,98940.22
2023-04-15T02:57:53.461Z,98942.41
2023-04-15T03:00:20.966Z,98944.00
2023-04-15T03:02:48.778Z,98938.94
2023-04-15T03:05:16.423Z,98943.22
2023-04-15T03:07:51.839Z,98933.87
2023-04-15T03:10:19.738Z,98938.47
2023-04-15T03:12:50.069Z,98939.25
2023-04-15T03:15:26.466Z,98936.06
2023-04-15T03:17:54.753Z,98934.50
2023-04-15T03:20:25.367Z,98936.06
2023-04-15T03:22:53.480Z,98933.69
2023-04-15T03:25:27.581Z,98931.34
2023-04-15T03:27:55.118Z,98939.84
2023-04-15T03:30:25.830Z,98935.91
2023-04-15T03:32:53.411Z,98939.66
2023-04-15T03:35:23.468Z,98938.28
2023-04-15T03:37:53.916Z,98942.06
2023-04-15T03:40:22.816Z,98936.69
2023-04-15T03:42:53.567Z,98940.44
2023-04-15T03:45:26.914Z,98943.44
2023-04-15T03:48:00.569Z,98942.66
2023-04-15T03:50:35.269Z,98948.03
2023-04-15T03:53:03.059Z,98944.56
2023-04-15T03:55:33.761Z,98946.44
2023-04-15T03:58:07.124Z,98941.09
2023-04-15T04:00:34.372Z,98954.00
2023-04-15T04:03:02.093Z,98951.81
2023-04-15T04:05:30.300Z,98954.50
2023-04-15T04:08:00.924Z,98950.19
2023-04-15T04:10:31.565Z,98950.84
2023-04-15T04:12:59.196Z,98960.75
2023-04-15T04:15:33.185Z,98963.41
2023-04-15T04:18:03.610Z,98954.59
2023-04-15T04:20:37.683Z,98954.59
2023-04-15T04:23:08.590Z,98954.59
2023-04-15T04:25:36.305Z,98963.75
2023-04-15T04:28:07.858Z,98957.59
2023-04-15T04:30:36.790Z,98962.16
2023-04-15T04:33:10.189Z,98960.59
2023-04-15T04:35:41.131Z,98962.44
2023-04-15T04:38:08.454Z,98962.75
2023-04-15T04:40:38.905Z,98964.34
2023-04-15T04:43:08.899Z,98973.16
2023-04-15T04:45:36.334Z,98971.31
2023-04-15T04:48:04.209Z,98965.44
2023-04-15T04:50:37.595Z,98975.38
2023-04-15T04:53:07.879Z,98970.31
2023-04-15T04:55:35.439Z,98974.09
2023-04-15T04:58:06.068Z,98974.41
2023-04-15T05:00:36.978Z,98981.34
2023-04-15T05:03:05.226Z,98981.00
2023-04-15T05:05:32.844Z,98975.97
2023-04-15T05:08:01.445Z,98989.06
2023-04-15T05:10:34.905Z,98986.87
2023-04-15T05:13:06.793Z,98987.37
2023-04-15T05:15:36.789Z,98987.84
2023-04-15T05:18:04.218Z,98985.69
2023-04-15T05:20:41.216Z,98989.31
2023-04-15T05:23:12.126Z,98992.47
2023-04-15T05:25:41.639Z,98996.44
2023-04-15T05:28:12.518Z,98995.03
2023-04-15T05:30:46.188Z,98999.78
2023-04-15T05:33:16.925Z,98997.00
2023-04-15T05:35:47.744Z,99000.94
2023-04-15T05:38:18.111Z,98997.16
2023-04-15T05:40:51.061Z,99004.91
2023-04-15T05:43:18.915Z,99009.47
2023-04-15T05:45:52.544Z,99008.69
2023-04-15T05:48:29.569Z,99001.13
2023-04-15T05:50:57.800Z,99011.84
2023-04-15T05:53:28.154Z,99018.00
2023-04-15T05:55:58.781Z,99016.91
2023-04-15T05:58:29.102Z,99021.00
2023-04-15T06:01:05.094Z,99018.59
2023-04-15T06:03:32.651Z,99017.81
2023-04-15T06:06:06.042Z,99019.09
2023-04-15T06:08:33.383Z,99027.94
2023-04-15T06:11:04.526Z,99024.16
2023-04-15T06:13:35.656Z,99031.72
2023-04-15T06:16:03.680Z,99034.28
2023-04-15T06:18:34.249Z,99033.66
2023-04-15T06:21:01.858Z,99037.62
2023-04-15T06:23:32.335Z,99038.41
2023-04-15T06:26:03.143Z,99033.84
2023-04-15T06:28:30.671Z,99039.03
2023-04-15T06:31:01.224Z,99032.09
2023-04-15T06:33:30.867Z,99048.19
2023-04-15T06:36:03.738Z,99041.22
2023-04-15T06:38:37.586Z,99047.06
2023-04-15T06:41:07.972Z,99047.53
2023-04-15T06:43:40.079Z,99051.31
2023-04-15T06:46:06.892Z,99045.50
2023-04-15T06:48:36.918Z,99049.75
2023-04-15T06:51:04.046Z,99051.31
2023-04-15T06:53:30.948Z,99051.31
2023-04-15T06:56:00.930Z,99047.53
2023-04-15T06:58:28.467Z,99058.25
2023-04-15T07:00:57.894Z,99064.13
2023-04-15T07:03:27.691Z,99068.38
2023-04-15T07:06:00.220Z,99071.56
2023-04-15T07:08:30.077Z,99071.25
2023-04-15T07:10:57.027Z,99072.84
2023-04-15T07:13:27.441Z,99075.22
2023-04-15T07:15:54.324Z,99076.31
2023-04-15T07:18:21.185Z,99072.53
2023-04-15T07:20:53.545Z,99074.44
2023-04-15T07:23:26.652Z,99074.44
2023-04-15T07:25:55.858Z,99085.16
2023-04-15T07:28:23.187Z,99091.78
2023-04-15T07:30:57.832Z,99089.59
2023-04-15T07:33:24.793Z,99086.44
2023-04-15T07:35:55.070Z,99093.41
2023-04-15T07:38:22.990Z,99094.97
2023-04-15T07:40:56.535Z,99105.09
2023-04-15T07:43:29.919Z,99103.19
2023-04-15T07:46:00.291Z,99101.78
2023-04-15T07:48:27.754Z,99108.13
2023-04-15T07:50:58.415Z,99110.81
2023-04-15T07:53:31.805Z,99112.44
2023-04-15T07:55:59.388Z,99111.34
2023-04-15T07:58:26.331Z,99114.81
2023-04-15T08:00:56.161Z,99116.37
2023-04-15T08:03:29.221Z,99119.84
2023-04-15T08:05:58.883Z,99120.66
2023-04-15T08:08:29.474Z,99125.53
2023-04-15T08:11:05.095Z,99123.63
2023-04-15T08:13:37.996Z,99122.53
2023-04-15T08:16:21.566Z,99129.50
2023-04-15T08:18:56.102Z,99124.44
2023-04-15T08:21:28.862Z,99130.50
2023-04-15T08:23:58.504Z,99133.50
2023-04-15T08:26:25.435Z,99130.50
2023-04-15T08:28:52.473Z,99139.31
2023-04-15T08:31:22.974Z,99140.63
2023-04-15T08:33:55.674Z,99152.12
2023-04-15T08:36:29.269Z,99139.84
2023-04-15T08:39:01.588Z,99150.56
2023-04-15T08:41:40.619Z,99148.97
2023-04-15T08:44:13.760Z,99145.19
2023-04-15T08:46:41.440Z,99147.37
2023-04-15T08:49:21.550Z,99152.12
2023-04-15T08:51:51.806Z,99147.09
2023-04-15T08:54:25.555Z,99148.00
2023-04-15T08:56:57.765Z,99152.41
2023-04-15T08:59:30.224Z,99155.69
2023-04-15T09:02:12.044Z,99153.78
2023-04-15T09:04:42.430Z,99154.56
2023-04-15T09:07:13.385Z,99152.69
2023-04-15T09:09:52.747Z,99159.16
2023-04-15T09:12:22.379Z,99159.16
2023-04-15T09:14:55.822Z,99161.50
2023-04-15T09:17:33.456Z,99163.72
2023-04-15T09:20:14.884Z,99166.41
2023-04-15T09:22:47.241Z,99171.44
2023-04-15T09:25:29.429Z,99167.66
2023-04-15T09:28:01.653Z,99173.22
2023-04-15T09:30:31.661Z,99166.28
2023-04-15T09:33:08.787Z,99164.38
2023-04-15T09:35:39.711Z,99174.31
2023-04-15T09:38:09.325Z,99167.84
2023-04-15T09:40:47.385Z,99175.91
2023-04-15T09:43:18.275Z,99176.09
2023-04-15T09:46:03.349Z,99165.69
2023-04-15T09:48:35.754Z,99173.22
2023-04-15T09:51:13.504Z,99176.41
2023-04-15T09:53:44.892Z,99171.31
2023-04-15T09:56:18.108Z,99173.22
2023-04-15T09:58:59.211Z,99181.78
2023-04-15T10:01:39.490Z,99180.19
2023-04-15T10:04:18.699Z,99179.09
2023-04-15T10:06:52.218Z,99185.25
2023-04-15T10:09:30.968Z,99196.44
2023-04-15T10:12:03.989Z,99195.66
2023-04-15T10:14:37.866Z,99193.47
2023-04-15T10:17:15.343Z,99195.66
2023-04-15T10:19:57.248Z,99194.88
2023-04-15T10:22:36.578Z,99194.38
2023-04-15T10:25:05.015Z,99191.72
2023-04-15T10:27:36.705Z,99198.34
2023-04-15T10:30:16.708Z,99200.72
2023-04-15T10:32:54.257Z,99195.66
2023-04-15T10:35:44.217Z,99201.03
2023-04-15T10:38:40.592Z,99201.53
2023-04-15T10:41:30.570Z,99195.28
2023-04-15T10:44:05.172Z,99200.84
2023-04-15T10:46:47.275Z,99200.31
2023-04-15T10:49:30.426Z,99195.47
2023-04-15T10:52:11.526Z,99205.09
2023-04-15T10:54:47.685Z,99205.59
2023-04-15T10:57:24.461Z,99198.03
2023-04-15T11:00:14.053Z,99201.22
2023-04-15T11:02:53.491Z,99210.84
2023-04-15T11:05:46.832Z,99217.50
2023-04-15T11:08:20.159Z,99214.19
2023-04-15T11:10:50.905Z,99214.88
2023-04-15T11:13:21.461Z,99223.37
2023-04-15T11:15:58.494Z,99218.03
2023-04-15T11:18:30.950Z,99205.91
2023-04-15T11:21:07.102Z,99214.44
2023-04-15T11:23:44.694Z,99216.03
2023-04-15T11:26:22.690Z,99211.44
2023-04-15T11:28:52.758Z,99213.03
2023-04-15T11:31:24.997Z,99213.03
2023-04-15T11:34:01.456Z,99208.44
2023-04-15T11:36:38.415Z,99211.62
2023-04-15T11:39:10.585Z,99220.16
2023-04-15T11:41:42.571Z,99206.44
2023-04-15T11:44:27.288Z,99214.69
2023-04-15T11:46:55.934Z,99210.09
2023-04-15T11:49:30.377Z,99207.63
2023-04-15T11:52:18.733Z,99212.19
2023-04-15T11:54:46.721Z,99206.81
2023-04-15T11:57:19.753Z,99209.37
2023-04-15T11:59:55.103Z,99210.94
2023-04-15T12:02:32.261Z,99203.41
2023-04-15T12:05:14.877Z,99202.59
2023-04-15T12:08:06.156Z,99202.28
2023-04-15T12:10:42.463Z,99210.03
2023-04-15T12:13:16.441Z,99214.31
2023-04-15T12:15:46.137Z,99199.47
2023-04-15T12:18:19.403Z,99205.34
2023-04-15T12:20:56.137Z,99210.69
2023-04-15T12:23:23.157Z,99206.59
2023-04-15T12:26:26.374Z,99204.09
2023-04-15T12:29:37.339Z,99202.69
2023-04-15T12:32:50.388Z,99213.63
2023-04-15T12:36:02.776Z,99203.97
2023-04-15T12:38:32.782Z,99206.66
2023-04-15T12:41:09.195Z,99205.69
2023-04-15T12:43:39.223Z,99212.66
2023-04-15T12:46:08.169Z,99216.31
2023-04-15T12:48:50.444Z,99206.84
2023-04-15T12:51:21.001Z,99219.34
2023-04-15T12:53:55.439Z,99215.22
2023-04-15T12:56:25.831Z,99219.69
2023-04-15T12:58:54.366Z,99224.47
2023-04-15T13:01:22.299Z,99227.66
2023-04-15T13:03:57.253Z,99226.22
2023-04-15T13:06:27.285Z,99227.81
2023-04-15T13:09:00.896Z,99231.75
2023-04-15T13:11:30.084Z,99228.78
2023-04-15T13:14:09.888Z,99231.16
2023-04-15T13:16:42.478Z,99243.47
2023-04-15T13:19:19.084Z,99241.28
2023-04-15T13:21:48.915Z,99245.87
2023-04-15T13:24:23.783Z,99249.81
2023-04-15T13:26:54.086Z,99246.22
2023-04-15T13:29:24.147Z,99250.00
2023-04-15T13:31:56.992Z,99250.00
2023-04-15T13:34:30.696Z,99250.50
2023-04-15T13:37:08.824Z,99255.06
2023-04-15T13:39:39.573Z,99262.53
2023-04-15T13:42:09.119Z,99251.12
2023-04-15T13:44:45.197Z,99259.03
2023-04-15T13:47:12.155Z,99257.44
2023-04-15T13:49:39.109Z,99261.53
2023-04-15T13:52:10.119Z,99261.53
2023-04-15T13:54:38.236Z,99270.22
2023-04-15T13:57:06.854Z,99269.75
2023-04-15T13:59:40.402Z,99269.75
2023-04-15T14:02:11.849Z,99275.13
2023-04-15T14:04:42.257Z,99276.22
2023-04-15T14:07:13.536Z,99274.63
2023-04-15T14:09:43.562Z,99282.19
2023-04-15T14:12:12.175Z,99287.56
2023-04-15T14:14:43.092Z,99290.25
2023-04-15T14:17:13.382Z,99295.16
2023-04-15T14:19:43.278Z,99298.16
2023-04-15T14:22:13.344Z,99294.66
2023-04-15T14:24:41.119Z,99295.47
2023-04-15T14:27:16.169Z,99305.41
2023-04-15T14:29:47.887Z,99296.06
2023-04-15T14:32:22.266Z,99307.31
2023-04-15T14:34:56.546Z,99311.91
2023-04-15T14:37:24.168Z,99315.97
2023-04-15T14:39:52.447Z,99316.78
2023-04-15T14:42:20.169Z,99314.09
2023-04-15T14:44:49.813Z,99316.78
2023-04-15T14:47:20.677Z,99322.13
2023-04-15T14:49:56.847Z,99322.13
2023-04-15T14:52:24.277Z,99322.31
2023-04-15T14:54:54.189Z,99319.34
2023-04-15T14:57:30.488Z,99322.50
2023-04-15T15:00:04.099Z,99328.06
2023-04-15T15:02:39.177Z,99322.37
2023-04-15T15:05:13.838Z,99322.87
2023-04-15T15:07:41.133Z,99326.34
2023-04-15T15:10:11.632Z,99320.66
2023-04-15T15:12:41.093Z,99322.25
2023-04-15T15:15:28.115Z,99323.84
2023-04-15T15:17:58.625Z,99334.59
2023-04-15T15:20:27.361Z,99349.91
2023-04-15T15:22:54.407Z,99380.59
2023-04-15T15:25:21.316Z,99381.38
2023-04-15T15:27:51.924Z,99385.97
2023-04-15T15:30:18.866Z,99384.06
2023-04-15T15:32:52.192Z,99378.19
2023-04-15T15:35:22.399Z,99394.31
2023-04-15T15:37:55.481Z,99398.09
2023-04-15T15:40:28.384Z,99407.28
2023-04-15T15:42:58.007Z,99418.03
2023-04-15T15:45:34.034Z,99424.47
2023-04-15T15:48:05.325Z,99422.91
2023-04-15T15:50:35.390Z,99429.37
2023-04-15T15:53:08.781Z,99433.19
2023-04-15T15:55:38.828Z,99434.25
2023-04-15T15:58:09.511Z,99436.94
2023-04-15T16:00:41.896Z,99428.41
2023-04-15T16:03:10.429Z,99442.31
2023-04-15T16:05:40.919Z,99429.97
2023-04-15T16:08:13.234Z,99438.84
2023-04-15T16:10:40.220Z,99436.94
2023-04-15T16:13:07.286Z,99442.81
2023-04-15T16:15:37.015Z,99444.72
2023-04-15T16:18:07.467Z,99438.53
2023-04-15T16:20:34.418Z,99449.28
2023-04-15T16:23:14.871Z,99452.78
2023-04-15T16:25:45.282Z,99450.88
2023-04-15T16:28:27.095Z,99456.25
2023-04-15T16:30:55.233Z,99449.78
2023-04-15T16:33:27.582Z,99458.94
2023-04-15T16:35:54.977Z,99461.63
2023-04-15T16:38:25.445Z,99465.09
2023-04-15T16:41:06.313Z,99456.25
2023-04-15T16:43:45.721Z,99466.50
2023-04-15T16:46:17.097Z,99465.41
2023-04-15T16:48:48.305Z,99469.19
2023-04-15T16:51:25.356Z,99476.16
2023-04-15T16:53:56.060Z,99470.00
2023-04-15T16:56:27.292Z,99468.37
2023-04-15T16:58:57.355Z,99467.59
2023-04-15T17:01:30.827Z,99463.81
2023-04-15T17:04:05.054Z,99471.88
2023-04-15T17:06:41.627Z,99479.12
2023-04-15T17:09:15.300Z,99465.22
2023-04-15T17:11:48.362Z,99467.13
2023-04-15T17:14:15.302Z,99472.78
2023-04-15T17:16:49.179Z,99492.38
2023-04-15T17:19:20.214Z,99499.19
2023-04-15T17:21:55.049Z,99507.22
2023-04-15T17:24:25.220Z,99513.41
2023-04-15T17:27:01.503Z,99522.06
2023-04-15T17:29:33.749Z,99521.25
2023-04-15T17:32:08.948Z,99533.91
2023-04-15T17:34:49.831Z,99532.31
2023-04-15T17:37:23.996Z,99543.66
2023-04-15T17:39:52.187Z,99554.41
2023-04-15T17:42:25.612Z,99556.00
2023-04-15T17:44:59.631Z,99557.88
2023-04-15T17:47:36.932Z,99561.97
2023-04-15T17:50:09.415Z,99565.16
2023-04-15T17:52:40.720Z,99575.91
2023-04-15T17:55:11.895Z,99573.69
2023-04-15T17:57:46.174Z,99573.69
2023-04-15T18:00:18.522Z,99583.38
2023-04-15T18:02:52.199Z,99582.53
2023-04-15T18:05:29.885Z,99592.03
2023-04-15T18:08:00.107Z,99604.34
2023-04-15T18:10:37.180Z,99590.22
2023-04-15T18:13:07.599Z,99601.75
2023-04-15T18:15:40.207Z,99607.63
2023-04-15T18:18:09.912Z,99610.63
2023-04-15T18:20:37.350Z,99615.69
2023-04-15T18:23:07.896Z,99616.25
2023-04-15T18:25:38.795Z,99614.66
2023-04-15T18:28:09.251Z,99616.25
2023-04-15T18:30:43.701Z,99619.75
2023-04-15T18:33:14.264Z,99620.56
2023-04-15T18:35:49.418Z,99622.44
2023-04-15T18:38:24.892Z,99620.84
2023-04-15T18:40:57.983Z,99625.41
2023-04-15T18:43:25.237Z,99627.00
2023-04-15T18:46:01.534Z,99639.88
2023-04-15T18:48:35.420Z,99648.50
2023-04-15T18:51:05.555Z,99653.06
2023-04-15T18:53:41.840Z,99660.34
2023-04-15T18:56:08.839Z,99661.44
2023-04-15T18:59:27.517Z,99664.13
2023-04-15T19:01:32.412Z,99665.72
2023-04-15T19:04:08.800Z,99671.66
2023-04-15T19:06:38.899Z,99675.97
2023-04-15T19:09:09.210Z,99686.72
2023-04-15T19:11:42.931Z,99692.88
2023-04-15T19:14:13.739Z,99692.09
2023-04-15T19:16:44.540Z,99697.47
2023-04-15T19:19:11.997Z,99699.03
2023-04-15T19:21:45.778Z,99706.59
2023-04-15T19:24:16.403Z,99702.63
2023-04-15T19:26:56.328Z,99704.50
2023-04-15T19:29:30.999Z,99706.41
2023-04-15T19:32:02.028Z,99697.84
2023-04-15T19:34:41.139Z,99701.91
2023-04-15T19:37:08.279Z,99697.63
2023-04-15T19:39:40.095Z,99701.91
2023-04-15T19:42:07.451Z,99699.31
2023-04-15T19:44:37.652Z,99698.22
2023-04-15T19:47:07.338Z,99692.62
2023-04-15T19:49:35.690Z,99702.59
2023-04-15T19:52:06.318Z,99698.81
2023-04-15T19:54:42.107Z,99697.78
2023-04-15T19:57:21.759Z,99697.31
2023-04-15T19:59:55.751Z,99701.09
2023-04-15T20:02:33.322Z,99693.03
2023-04-15T20:05:03.556Z,99695.41
2023-04-15T20:07:39.692Z,99697.31
2023-04-15T20:10:13.472Z,99701.88
2023-04-15T20:12:49.918Z,99700.78
2023-04-15T20:15:24.735Z,99706.47
2023-04-15T20:17:57.893Z,99711.31
2023-04-15T20:20:32.817Z,99713.53
2023-04-15T20:23:03.679Z,99716.69
2023-04-15T20:25:36.861Z,99710.03
2023-04-15T20:28:07.264Z,99718.09
2023-04-15T20:30:40.642Z,99713.53
2023-04-15T20:33:13.878Z,99717.28
2023-04-15T20:35:45.647Z,99726.44
2023-04-15T20:38:19.034Z,99730.22
2023-04-15T20:40:52.357Z,99730.22
2023-04-15T20:43:22.972Z,99737.16
2023-04-15T20:45:51.473Z,99729.41
2023-04-15T20:48:25.423Z,99741.22
2023-04-15T20:50:56.184Z,99734.56
2023-04-15T20:53:29.782Z,99736.16
2023-04-15T20:56:04.163Z,99734.56
2023-04-15T20:58:37.305Z,99743.72
2023-04-15T21:01:08.511Z,99740.53
2023-04-15T21:03:41.660Z,99749.09
2023-04-15T21:06:12.806Z,99749.37
2023-04-15T21:08:45.477Z,99745.91
2023-04-15T21:11:38.721Z,99751.56
2023-04-15T21:14:10.667Z,99749.69
2023-04-15T21:16:45.396Z,99754.25
2023-04-15T21:19:17.800Z,99747.78
2023-04-15T21:21:47.624Z,99757.22
2023-04-15T21:24:22.148Z,99764.19
2023-04-15T21:26:50.148Z,99759.09
2023-04-15T21:29:20.382Z,99758.00
2023-04-15T21:31:51.122Z,99767.16
2023-04-15T21:34:20.204Z,99761.78
2023-04-15T21:36:47.596Z,99761.00
2023-04-15T21:39:20.934Z,99769.03
2023-04-15T21:41:52.009Z,99760.50
2023-04-15T21:44:28.472Z,99766.66
2023-04-15T21:47:02.408Z,99768.56
2023-04-15T21:49:37.953Z,99769.62
2023-04-15T21:52:08.186Z,99768.03
2023-04-15T21:54:38.664Z,99782.25
2023-04-15T21:57:11.744Z,99786.81
2023-04-15T21:59:41.044Z,99784.12
2023-04-15T22:02:08.841Z,99782.56
2023-04-15T22:04:39.532Z,99775.88
2023-04-15T22:07:07.430Z,99786.31
2023-04-15T22:09:43.964Z,99784.72
2023-04-15T22:12:20.588Z,99796.25
2023-04-15T22:14:51.869Z,99803.50
2023-04-15T22:17:27.980Z,99803.50
2023-04-15T22:20:04.462Z,99799.22
2023-04-15T22:22:35.868Z,99800.34
2023-04-15T22:25:19.538Z,99808.38
2023-04-15T22:27:49.841Z,99811.06
2023-04-15T22:30:23.706Z,99808.38
2023-04-15T22:32:52.176Z,99809.44
2023-04-15T22:35:23.031Z,99811.34
2023-04-15T22:37:51.080Z,99813.22
2023-04-15T22:40:23.746Z,99817.00
2023-04-15T22:42:57.011Z,99823.97
2023-04-15T22:45:25.602Z,99822.38
2023-04-15T22:47:58.878Z,99833.91
2023-04-15T22:50:40.417Z,99832.59
2023-04-15T22:53:15.939Z,99832.09
2023-04-15T22:56:01.463Z,99833.69
2023-04-15T22:58:34.606Z,99836.09
2023-04-15T23:01:03.357Z,99846.00
2023-04-15T23:03:38.982Z,99845.22
2023-04-15T23:06:30.545Z,99849.00
2023-04-15T23:09:04.378Z,99850.88
2023-04-15T23:11:41.178Z,99851.97
2023-04-15T23:14:15.124Z,99853.03
2023-04-15T23:16:50.946Z,99852.56
2023-04-15T23:19:29.272Z,99851.97
2023-04-15T23:22:03.137Z,99861.09
2023-04-15T23:24:30.680Z,99854.94
2023-04-15T23:27:01.302Z,99867.84
2023-04-15T23:29:34.681Z,99870.53
2023-04-15T23:32:10.817Z,99872.94
2023-04-15T23:34:41.835Z,99878.59
2023-04-15T23:37:11.469Z,99882.34
2023-04-15T23:39:44.868Z,99874.59
2023-04-15T23:42:15.279Z,99879.97
2023-04-15T23:44:46.145Z,99881.53
2023-04-15T23:47:13.814Z,99885.31
2023-04-15T23:49:43.713Z,99879.97
2023-04-15T23:52:14.533Z,99883.22
2023-04-15T23:54:47.705Z,99875.94
2023-04-15T23:57:20.884Z,99880.53
2023-04-15T23:59:54.540Z,99871.41
